LiveATC.Net - Listen to live air traffic control over the Internet!


ICAO: UMGG  IATA: GME   Airport: Gomel Airport
City: Gomel
Country: Belarus   Continent: Europe
UMGG METAR Weather: UMGG 180400Z 13005G08MPS 0900 R10/P2000 FG VV001 04/04 Q1027 R10/190055 TEMPO 0600 RMK QBB050
UMGG Flight Activity (FlightAware)

UMGG Control
Feed Status: DOWN
Last heard on: 2019-11-15 19:37:40 (2 days 9 hours 23 minutes ago)
Archive Access: UMGG Control
FacilityFrequency
Minsk Control119.125
Minsk Control120.125
Minsk Control120.575

NOTICE

Unauthorized use prohibited. See LiveATC.net Terms of Service


Airport/ARTCC Code
Frequency Search
(e.g., 124.400, 128.75)
Site-wide search
 


Browse LiveATC Feeds
Top 50 LiveATC Feeds
LiveATC Feed Map
Bad Weather Areas

LiveATC FAQ
Offer LiveATC feed
Contact LiveATC.net
Press Inquiries

LiveATC on iPhone
LiveATC on Android

Windows Phone
Windows 8/10

LiveATC Mobile
(Mobile browser)

ATC Audio Archives
Interesting Recordings

LiveATC Forums


Home Page
About LiveATC.net
Make a Donation
Terms of Use
Privacy Policy

Canadian Air Freqs

AIRMETs/SIGMETs

FAA Airport Status
Nat'l Airspace Status
Arrival Demand Charts


Server Software By:
Icecast.org
Liquidsoap